sensor_id;sensor_type;location;lat;lon;timestamp;temperature;humidity
28177;DHT22;15461;41.652;9.378;2022-08-19T00:01:13;24.20;99.90
28177;DHT22;15461;41.652;9.378;2022-08-19T00:03:39;24.30;99.90
28177;DHT22;15461;41.652;9.378;2022-08-19T00:06:05;24.40;99.90
28177;DHT22;15461;41.652;9.378;2022-08-19T00:08:31;24.30;99.90
28177;DHT22;15461;41.652;9.378;2022-08-19T00:10:57;24.30;99.90
28177;DHT22;15461;41.652;9.378;2022-08-19T00:13:23;24.30;99.90
28177;DHT22;15461;41.652;9.378;2022-08-19T00:15:49;24.30;99.90
28177;DHT22;15461;41.652;9.378;2022-08-19T00:18:14;24.30;99.90
28177;DHT22;15461;41.652;9.378;2022-08-19T00:20:41;24.30;99.90
28177;DHT22;15461;41.652;9.378;2022-08-19T00:23:07;24.20;99.90
28177;DHT22;15461;41.652;9.378;2022-08-19T00:25:33;24.20;99.90
28177;DHT22;15461;41.652;9.378;2022-08-19T00:27:59;24.20;99.90
28177;DHT22;15461;41.652;9.378;2022-08-19T00:30:25;24.20;99.90
28177;DHT22;15461;41.652;9.378;2022-08-19T00:32:53;24.20;99.90
28177;DHT22;15461;41.652;9.378;2022-08-19T00:35:21;24.10;99.90
28177;DHT22;15461;41.652;9.378;2022-08-19T00:37:48;24.00;99.90
28177;DHT22;15461;41.652;9.378;2022-08-19T00:40:15;24.00;99.90
28177;DHT22;15461;41.652;9.378;2022-08-19T00:42:41;24.00;99.90
28177;DHT22;15461;41.652;9.378;2022-08-19T00:45:18;24.10;99.90
28177;DHT22;15461;41.652;9.378;2022-08-19T00:47:45;24.10;99.90
28177;DHT22;15461;41.652;9.378;2022-08-19T00:50:14;24.10;99.90
28177;DHT22;15461;41.652;9.378;2022-08-19T00:52:43;24.10;99.90
28177;DHT22;15461;41.652;9.378;2022-08-19T00:55:15;24.20;99.90
28177;DHT22;15461;41.652;9.378;2022-08-19T00:57:49;24.20;99.90
28177;DHT22;15461;41.652;9.378;2022-08-19T01:00:18;24.20;99.90
28177;DHT22;15461;41.652;9.378;2022-08-19T01:02:44;24.20;99.90
28177;DHT22;15461;41.652;9.378;2022-08-19T01:05:14;24.20;99.90
28177;DHT22;15461;41.652;9.378;2022-08-19T01:07:41;24.10;99.90
28177;DHT22;15461;41.652;9.378;2022-08-19T01:10:11;24.00;99.90
28177;DHT22;15461;41.652;9.378;2022-08-19T01:12:39;23.90;99.90
28177;DHT22;15461;41.652;9.378;2022-08-19T01:15:07;23.90;99.90
28177;DHT22;15461;41.652;9.378;2022-08-19T01:17:35;23.80;99.90
28177;DHT22;15461;41.652;9.378;2022-08-19T01:20:03;23.80;99.90
28177;DHT22;15461;41.652;9.378;2022-08-19T01:22:46;23.70;99.90
28177;DHT22;15461;41.652;9.378;2022-08-19T01:25:15;23.70;99.90
28177;DHT22;15461;41.652;9.378;2022-08-19T01:27:43;23.60;99.90
28177;DHT22;15461;41.652;9.378;2022-08-19T01:30:18;23.60;99.90
28177;DHT22;15461;41.652;9.378;2022-08-19T01:32:45;23.60;99.90
28177;DHT22;15461;41.652;9.378;2022-08-19T01:35:14;23.60;99.90
28177;DHT22;15461;41.652;9.378;2022-08-19T01:40:10;23.50;99.90
28177;DHT22;15461;41.652;9.378;2022-08-19T01:42:36;23.50;99.90
28177;DHT22;15461;41.652;9.378;2022-08-19T01:45:03;23.50;99.90
28177;DHT22;15461;41.652;9.378;2022-08-19T01:47:29;23.40;99.90
28177;DHT22;15461;41.652;9.378;2022-08-19T01:49:56;23.40;99.90
28177;DHT22;15461;41.652;9.378;2022-08-19T01:52:23;23.40;99.90
28177;DHT22;15461;41.652;9.378;2022-08-19T01:54:49;23.40;99.90
28177;DHT22;15461;41.652;9.378;2022-08-19T01:57:15;23.30;99.90
28177;DHT22;15461;41.652;9.378;2022-08-19T01:59:42;23.30;99.90
28177;DHT22;15461;41.652;9.378;2022-08-19T02:02:10;23.20;99.90
28177;DHT22;15461;41.652;9.378;2022-08-19T02:04:36;23.20;99.90
28177;DHT22;15461;41.652;9.378;2022-08-19T02:07:07;23.20;99.90
28177;DHT22;15461;41.652;9.378;2022-08-19T02:09:34;23.20;99.90
28177;DHT22;15461;41.652;9.378;2022-08-19T02:12:00;23.20;99.90
28177;DHT22;15461;41.652;9.378;2022-08-19T02:14:26;23.20;99.90
28177;DHT22;15461;41.652;9.378;2022-08-19T02:16:52;23.20;99.90
28177;DHT22;15461;41.652;9.378;2022-08-19T02:19:18;23.20;99.90
28177;DHT22;15461;41.652;9.378;2022-08-19T02:21:44;23.30;99.90
28177;DHT22;15461;41.652;9.378;2022-08-19T02:24:10;23.30;99.90
28177;DHT22;15461;41.652;9.378;2022-08-19T02:26:36;23.30;99.90
28177;DHT22;15461;41.652;9.378;2022-08-19T02:29:02;23.40;99.90
28177;DHT22;15461;41.652;9.378;2022-08-19T02:31:28;23.40;99.90
28177;DHT22;15461;41.652;9.378;2022-08-19T02:33:55;23.40;99.90
28177;DHT22;15461;41.652;9.378;2022-08-19T02:36:22;23.30;99.90
28177;DHT22;15461;41.652;9.378;2022-08-19T02:38:48;23.30;99.90
28177;DHT22;15461;41.652;9.378;2022-08-19T02:41:20;23.30;99.90
28177;DHT22;15461;41.652;9.378;2022-08-19T02:43:47;23.30;99.90
28177;DHT22;15461;41.652;9.378;2022-08-19T02:46:19;23.40;99.90
28177;DHT22;15461;41.652;9.378;2022-08-19T02:48:51;23.40;99.90
28177;DHT22;15461;41.652;9.378;2022-08-19T02:51:26;23.40;99.90
28177;DHT22;15461;41.652;9.378;2022-08-19T02:53:53;23.40;99.90
28177;DHT22;15461;41.652;9.378;2022-08-19T02:56:20;23.50;99.90
28177;DHT22;15461;41.652;9.378;2022-08-19T02:58:47;23.50;99.90
28177;DHT22;15461;41.652;9.378;2022-08-19T03:01:23;23.50;99.90
28177;DHT22;15461;41.652;9.378;2022-08-19T03:03:49;23.50;99.90
28177;DHT22;15461;41.652;9.378;2022-08-19T03:06:17;23.50;99.90
28177;DHT22;15461;41.652;9.378;2022-08-19T03:08:45;23.50;99.90
28177;DHT22;15461;41.652;9.378;2022-08-19T03:11:21;23.50;99.90
28177;DHT22;15461;41.652;9.378;2022-08-19T03:13:47;23.50;99.90
28177;DHT22;15461;41.652;9.378;2022-08-19T03:16:17;23.50;99.90
28177;DHT22;15461;41.652;9.378;2022-08-19T03:18:44;23.40;99.90
28177;DHT22;15461;41.652;9.378;2022-08-19T03:21:18;23.30;99.90
28177;DHT22;15461;41.652;9.378;2022-08-19T03:23:44;23.40;99.90
28177;DHT22;15461;41.652;9.378;2022-08-19T03:26:10;23.40;99.90
28177;DHT22;15461;41.652;9.378;2022-08-19T03:28:36;23.40;99.90
28177;DHT22;15461;41.652;9.378;2022-08-19T03:31:10;23.40;99.90
28177;DHT22;15461;41.652;9.378;2022-08-19T03:33:36;23.50;99.90
28177;DHT22;15461;41.652;9.378;2022-08-19T03:36:07;23.50;99.90
28177;DHT22;15461;41.652;9.378;2022-08-19T03:38:36;23.40;99.90
28177;DHT22;15461;41.652;9.378;2022-08-19T03:41:08;23.40;99.90
28177;DHT22;15461;41.652;9.378;2022-08-19T03:43:37;23.30;99.90
28177;DHT22;15461;41.652;9.378;2022-08-19T03:46:09;23.30;99.90
28177;DHT22;15461;41.652;9.378;2022-08-19T03:48:37;23.20;99.90
28177;DHT22;15461;41.652;9.378;2022-08-19T03:51:05;23.20;99.90
28177;DHT22;15461;41.652;9.378;2022-08-19T03:53:32;23.20;99.90
28177;DHT22;15461;41.652;9.378;2022-08-19T03:55:58;23.20;99.90
28177;DHT22;15461;41.652;9.378;2022-08-19T03:58:29;23.10;99.90
28177;DHT22;15461;41.652;9.378;2022-08-19T04:00:56;23.00;99.90
28177;DHT22;15461;41.652;9.378;2022-08-19T04:03:26;22.90;99.90
28177;DHT22;15461;41.652;9.378;2022-08-19T04:05:53;22.80;99.90
28177;DHT22;15461;41.652;9.378;2022-08-19T04:08:19;22.60;99.90
28177;DHT22;15461;41.652;9.378;2022-08-19T04:10:48;22.50;99.90
28177;DHT22;15461;41.652;9.378;2022-08-19T04:13:16;22.30;99.90
28177;DHT22;15461;41.652;9.378;2022-08-19T04:15:44;22.20;99.90
28177;DHT22;15461;41.652;9.378;2022-08-19T04:18:10;22.20;99.90
28177;DHT22;15461;41.652;9.378;2022-08-19T04:20:46;22.10;99.90
28177;DHT22;15461;41.652;9.378;2022-08-19T04:23:14;22.00;99.90
28177;DHT22;15461;41.652;9.378;2022-08-19T04:25:42;21.90;99.90
28177;DHT22;15461;41.652;9.378;2022-08-19T04:28:10;21.90;99.90
28177;DHT22;15461;41.652;9.378;2022-08-19T04:30:45;22.00;99.90
28177;DHT22;15461;41.652;9.378;2022-08-19T04:33:13;22.00;99.90
28177;DHT22;15461;41.652;9.378;2022-08-19T04:35:41;22.00;99.90
28177;DHT22;15461;41.652;9.378;2022-08-19T04:38:08;22.10;99.90
28177;DHT22;15461;41.652;9.378;2022-08-19T04:40:39;22.20;99.90
28177;DHT22;15461;41.652;9.378;2022-08-19T04:43:24;22.20;99.90
28177;DHT22;15461;41.652;9.378;2022-08-19T04:45:50;22.30;99.90
28177;DHT22;15461;41.652;9.378;2022-08-19T04:48:17;22.30;99.90
28177;DHT22;15461;41.652;9.378;2022-08-19T04:50:45;22.50;99.90
28177;DHT22;15461;41.652;9.378;2022-08-19T04:53:11;22.80;99.90
28177;DHT22;15461;41.652;9.378;2022-08-19T04:55:41;22.90;99.90
28177;DHT22;15461;41.652;9.378;2022-08-19T04:58:08;23.10;99.90
28177;DHT22;15461;41.652;9.378;2022-08-19T05:00:38;23.10;99.90
28177;DHT22;15461;41.652;9.378;2022-08-19T05:03:05;23.10;99.90
28177;DHT22;15461;41.652;9.378;2022-08-19T05:05:31;23.10;99.90
28177;DHT22;15461;41.652;9.378;2022-08-19T05:07:58;23.10;99.90
28177;DHT22;15461;41.652;9.378;2022-08-19T05:10:24;23.10;99.90
28177;DHT22;15461;41.652;9.378;2022-08-19T05:12:50;23.10;99.90
28177;DHT22;15461;41.652;9.378;2022-08-19T05:15:15;23.10;99.90
28177;DHT22;15461;41.652;9.378;2022-08-19T05:17:41;23.20;99.90
28177;DHT22;15461;41.652;9.378;2022-08-19T05:20:27;23.20;99.90
28177;DHT22;15461;41.652;9.378;2022-08-19T05:23:12;23.20;99.90
28177;DHT22;15461;41.652;9.378;2022-08-19T05:25:41;23.20;99.90
28177;DHT22;15461;41.652;9.378;2022-08-19T05:28:07;23.20;99.90
28177;DHT22;15461;41.652;9.378;2022-08-19T05:30:32;23.30;99.90
28177;DHT22;15461;41.652;9.378;2022-08-19T05:32:59;23.50;99.90
28177;DHT22;15461;41.652;9.378;2022-08-19T05:35:25;23.60;99.90
28177;DHT22;15461;41.652;9.378;2022-08-19T05:37:51;23.80;99.90
28177;DHT22;15461;41.652;9.378;2022-08-19T05:40:19;23.80;99.90
28177;DHT22;15461;41.652;9.378;2022-08-19T05:42:45;23.90;99.90
28177;DHT22;15461;41.652;9.378;2022-08-19T05:45:11;24.00;99.90
28177;DHT22;15461;41.652;9.378;2022-08-19T05:47:38;24.00;99.90
28177;DHT22;15461;41.652;9.378;2022-08-19T05:50:04;24.00;99.90
28177;DHT22;15461;41.652;9.378;2022-08-19T05:52:30;24.10;99.90
28177;DHT22;15461;41.652;9.378;2022-08-19T05:54:56;24.20;99.90
28177;DHT22;15461;41.652;9.378;2022-08-19T05:57:23;24.30;99.90
28177;DHT22;15461;41.652;9.378;2022-08-19T05:59:49;24.40;99.90
28177;DHT22;15461;41.652;9.378;2022-08-19T06:02:16;24.40;99.90
28177;DHT22;15461;41.652;9.378;2022-08-19T06:04:42;24.50;99.90
28177;DHT22;15461;41.652;9.378;2022-08-19T06:07:08;24.60;99.90
28177;DHT22;15461;41.652;9.378;2022-08-19T06:09:34;24.60;99.90
28177;DHT22;15461;41.652;9.378;2022-08-19T06:12:00;24.60;99.90
28177;DHT22;15461;41.652;9.378;2022-08-19T06:14:31;24.80;99.90
28177;DHT22;15461;41.652;9.378;2022-08-19T06:16:58;24.90;99.90
28177;DHT22;15461;41.652;9.378;2022-08-19T06:19:28;25.00;99.90
28177;DHT22;15461;41.652;9.378;2022-08-19T06:21:59;25.20;99.90
28177;DHT22;15461;41.652;9.378;2022-08-19T06:24:28;25.30;99.90
28177;DHT22;15461;41.652;9.378;2022-08-19T06:26:56;25.50;99.90
28177;DHT22;15461;41.652;9.378;2022-08-19T06:29:24;25.60;99.90
28177;DHT22;15461;41.652;9.378;2022-08-19T06:31:52;25.70;99.90
28177;DHT22;15461;41.652;9.378;2022-08-19T06:34:19;25.80;99.90
28177;DHT22;15461;41.652;9.378;2022-08-19T06:36:48;25.90;99.90
28177;DHT22;15461;41.652;9.378;2022-08-19T06:39:16;25.90;99.90
28177;DHT22;15461;41.652;9.378;2022-08-19T06:41:47;26.00;99.90
28177;DHT22;15461;41.652;9.378;2022-08-19T06:44:18;26.00;99.90
28177;DHT22;15461;41.652;9.378;2022-08-19T06:46:45;26.10;99.90
28177;DHT22;15461;41.652;9.378;2022-08-19T06:49:11;26.10;99.90
28177;DHT22;15461;41.652;9.378;2022-08-19T06:51:44;26.20;99.90
28177;DHT22;15461;41.652;9.378;2022-08-19T06:54:11;26.30;99.90
28177;DHT22;15461;41.652;9.378;2022-08-19T06:56:38;26.30;99.90
28177;DHT22;15461;41.652;9.378;2022-08-19T06:59:09;26.40;99.90
28177;DHT22;15461;41.652;9.378;2022-08-19T07:01:41;26.50;99.90
28177;DHT22;15461;41.652;9.378;2022-08-19T07:04:08;26.50;99.90
28177;DHT22;15461;41.652;9.378;2022-08-19T07:06:35;26.60;99.90
28177;DHT22;15461;41.652;9.378;2022-08-19T07:09:04;26.80;99.90
28177;DHT22;15461;41.652;9.378;2022-08-19T07:11:30;26.90;99.90
28177;DHT22;15461;41.652;9.378;2022-08-19T07:13:57;27.00;99.90
28177;DHT22;15461;41.652;9.378;2022-08-19T07:16:23;27.10;99.90
28177;DHT22;15461;41.652;9.378;2022-08-19T07:18:50;27.40;99.90
28177;DHT22;15461;41.652;9.378;2022-08-19T07:21:22;27.40;99.90
28177;DHT22;15461;41.652;9.378;2022-08-19T07:23:48;27.40;99.90
28177;DHT22;15461;41.652;9.378;2022-08-19T07:26:15;27.30;99.90
28177;DHT22;15461;41.652;9.378;2022-08-19T07:28:42;27.10;99.90
28177;DHT22;15461;41.652;9.378;2022-08-19T07:31:14;26.80;99.90
28177;DHT22;15461;41.652;9.378;2022-08-19T07:33:41;26.60;99.90
28177;DHT22;15461;41.652;9.378;2022-08-19T07:36:11;26.40;99.90
28177;DHT22;15461;41.652;9.378;2022-08-19T07:38:40;26.30;99.90
28177;DHT22;15461;41.652;9.378;2022-08-19T07:41:15;26.20;99.90
28177;DHT22;15461;41.652;9.378;2022-08-19T07:43:41;26.20;99.90
28177;DHT22;15461;41.652;9.378;2022-08-19T07:46:10;26.30;99.90
28177;DHT22;15461;41.652;9.378;2022-08-19T07:48:36;26.60;99.90
28177;DHT22;15461;41.652;9.378;2022-08-19T07:51:04;26.80;99.90
28177;DHT22;15461;41.652;9.378;2022-08-19T07:53:32;27.00;99.90
28177;DHT22;15461;41.652;9.378;2022-08-19T07:56:01;27.20;99.90
28177;DHT22;15461;41.652;9.378;2022-08-19T07:58:33;27.40;99.90
28177;DHT22;15461;41.652;9.378;2022-08-19T08:00:59;27.50;99.90
28177;DHT22;15461;41.652;9.378;2022-08-19T08:03:26;27.30;99.90
28177;DHT22;15461;41.652;9.378;2022-08-19T08:06:13;26.90;99.90
28177;DHT22;15461;41.652;9.378;2022-08-19T08:08:58;26.50;99.90
28177;DHT22;15461;41.652;9.378;2022-08-19T08:11:51;25.90;99.90
28177;DHT22;15461;41.652;9.378;2022-08-19T08:14:23;25.50;99.90
28177;DHT22;15461;41.652;9.378;2022-08-19T08:16:51;25.10;99.90
28177;DHT22;15461;41.652;9.378;2022-08-19T08:19:20;24.70;99.90
28177;DHT22;15461;41.652;9.378;2022-08-19T08:21:47;24.40;99.90
28177;DHT22;15461;41.652;9.378;2022-08-19T08:24:13;24.10;99.90
28177;DHT22;15461;41.652;9.378;2022-08-19T08:26:39;23.80;99.90
28177;DHT22;15461;41.652;9.378;2022-08-19T08:29:06;23.60;99.90
28177;DHT22;15461;41.652;9.378;2022-08-19T08:31:34;23.40;99.90
28177;DHT22;15461;41.652;9.378;2022-08-19T08:34:00;23.20;99.90
28177;DHT22;15461;41.652;9.378;2022-08-19T08:36:26;23.00;99.90
28177;DHT22;15461;41.652;9.378;2022-08-19T08:38:53;22.90;99.90
28177;DHT22;15461;41.652;9.378;2022-08-19T08:41:31;22.90;99.90
28177;DHT22;15461;41.652;9.378;2022-08-19T08:44:01;22.90;99.90
28177;DHT22;15461;41.652;9.378;2022-08-19T08:46:39;23.00;99.90
28177;DHT22;15461;41.652;9.378;2022-08-19T08:52:05;23.10;99.90
28177;DHT22;15461;41.652;9.378;2022-08-19T08:54:44;23.10;99.90
28177;DHT22;15461;41.652;9.378;2022-08-19T08:57:24;23.10;99.90
28177;DHT22;15461;41.652;9.378;2022-08-19T08:59:51;23.10;99.90
28177;DHT22;15461;41.652;9.378;2022-08-19T09:02:19;23.10;99.90
28177;DHT22;15461;41.652;9.378;2022-08-19T09:04:45;23.10;99.90
28177;DHT22;15461;41.652;9.378;2022-08-19T09:10:22;23.40;99.90
28177;DHT22;15461;41.652;9.378;2022-08-19T09:15:32;23.30;99.90
28177;DHT22;15461;41.652;9.378;2022-08-19T09:18:04;23.30;99.90
28177;DHT22;15461;41.652;9.378;2022-08-19T09:20:32;23.30;99.90
28177;DHT22;15461;41.652;9.378;2022-08-19T09:22:58;23.50;99.90
28177;DHT22;15461;41.652;9.378;2022-08-19T09:25:25;23.70;99.90
28177;DHT22;15461;41.652;9.378;2022-08-19T09:27:52;23.90;99.90
28177;DHT22;15461;41.652;9.378;2022-08-19T09:30:24;24.10;99.90
28177;DHT22;15461;41.652;9.378;2022-08-19T09:32:53;24.00;99.90
28177;DHT22;15461;41.652;9.378;2022-08-19T09:35:24;24.00;99.90
28177;DHT22;15461;41.652;9.378;2022-08-19T09:37:51;24.00;99.90
28177;DHT22;15461;41.652;9.378;2022-08-19T09:40:18;24.00;99.90
28177;DHT22;15461;41.652;9.378;2022-08-19T09:42:44;24.10;99.90
28177;DHT22;15461;41.652;9.378;2022-08-19T09:45:17;24.20;99.90
28177;DHT22;15461;41.652;9.378;2022-08-19T09:47:43;24.40;99.90
28177;DHT22;15461;41.652;9.378;2022-08-19T09:50:11;24.60;99.90
28177;DHT22;15461;41.652;9.378;2022-08-19T09:52:38;24.80;99.90
28177;DHT22;15461;41.652;9.378;2022-08-19T09:55:06;25.00;99.90
28177;DHT22;15461;41.652;9.378;2022-08-19T09:57:34;25.40;99.90
28177;DHT22;15461;41.652;9.378;2022-08-19T10:00:00;25.80;99.90
28177;DHT22;15461;41.652;9.378;2022-08-19T10:02:26;26.40;99.90
28177;DHT22;15461;41.652;9.378;2022-08-19T10:04:52;26.80;99.90
28177;DHT22;15461;41.652;9.378;2022-08-19T10:07:37;27.30;99.90
28177;DHT22;15461;41.652;9.378;2022-08-19T10:10:05;27.60;99.90
28177;DHT22;15461;41.652;9.378;2022-08-19T10:12:35;27.80;99.90
28177;DHT22;15461;41.652;9.378;2022-08-19T10:15:03;28.00;99.90
28177;DHT22;15461;41.652;9.378;2022-08-19T10:17:29;27.90;99.90
28177;DHT22;15461;41.652;9.378;2022-08-19T10:19:54;28.00;99.90
28177;DHT22;15461;41.652;9.378;2022-08-19T10:22:20;28.00;99.90
28177;DHT22;15461;41.652;9.378;2022-08-19T10:24:46;28.20;99.90
28177;DHT22;15461;41.652;9.378;2022-08-19T10:27:12;28.20;99.90
28177;DHT22;15461;41.652;9.378;2022-08-19T10:29:40;28.30;99.90
28177;DHT22;15461;41.652;9.378;2022-08-19T10:32:08;28.50;99.90
28177;DHT22;15461;41.652;9.378;2022-08-19T10:34:35;28.60;99.90
28177;DHT22;15461;41.652;9.378;2022-08-19T10:37:03;28.70;99.90
28177;DHT22;15461;41.652;9.378;2022-08-19T10:39:33;28.60;99.90
28177;DHT22;15461;41.652;9.378;2022-08-19T10:42:03;28.80;99.90
28177;DHT22;15461;41.652;9.378;2022-08-19T10:44:29;29.00;99.90
28177;DHT22;15461;41.652;9.378;2022-08-19T10:46:55;29.00;99.90
28177;DHT22;15461;41.652;9.378;2022-08-19T10:49:21;29.20;99.90
28177;DHT22;15461;41.652;9.378;2022-08-19T10:51:49;29.30;99.90
28177;DHT22;15461;41.652;9.378;2022-08-19T10:54:33;29.10;99.90
28177;DHT22;15461;41.652;9.378;2022-08-19T10:57:18;29.00;99.90
28177;DHT22;15461;41.652;9.378;2022-08-19T10:59:44;28.80;99.90
28177;DHT22;15461;41.652;9.378;2022-08-19T11:02:11;28.50;99.90
28177;DHT22;15461;41.652;9.378;2022-08-19T11:04:39;28.30;99.90
28177;DHT22;15461;41.652;9.378;2022-08-19T11:07:06;28.20;99.90
28177;DHT22;15461;41.652;9.378;2022-08-19T11:09:37;28.10;99.90
28177;DHT22;15461;41.652;9.378;2022-08-19T11:12:05;28.10;99.90
28177;DHT22;15461;41.652;9.378;2022-08-19T11:14:31;28.20;99.90
28177;DHT22;15461;41.652;9.378;2022-08-19T11:16:59;28.20;99.90
28177;DHT22;15461;41.652;9.378;2022-08-19T11:19:25;28.10;99.90
28177;DHT22;15461;41.652;9.378;2022-08-19T11:21:52;28.00;99.90
28177;DHT22;15461;41.652;9.378;2022-08-19T11:24:25;28.00;99.90
28177;DHT22;15461;41.652;9.378;2022-08-19T11:26:53;28.00;99.90
28177;DHT22;15461;41.652;9.378;2022-08-19T11:29:24;27.80;99.90
28177;DHT22;15461;41.652;9.378;2022-08-19T11:31:51;27.80;99.90
28177;DHT22;15461;41.652;9.378;2022-08-19T11:34:24;27.90;99.90
28177;DHT22;15461;41.652;9.378;2022-08-19T11:36:52;28.00;99.90
28177;DHT22;15461;41.652;9.378;2022-08-19T11:39:21;28.20;99.90
28177;DHT22;15461;41.652;9.378;2022-08-19T11:41:48;28.20;99.90
28177;DHT22;15461;41.652;9.378;2022-08-19T11:44:14;28.20;99.90
28177;DHT22;15461;41.652;9.378;2022-08-19T11:46:41;28.20;99.90
28177;DHT22;15461;41.652;9.378;2022-08-19T11:49:11;28.20;99.90
28177;DHT22;15461;41.652;9.378;2022-08-19T11:51:37;28.30;99.90
28177;DHT22;15461;41.652;9.378;2022-08-19T11:54:05;28.30;99.90
28177;DHT22;15461;41.652;9.378;2022-08-19T11:56:31;28.00;99.90
28177;DHT22;15461;41.652;9.378;2022-08-19T11:58:57;27.90;99.90
28177;DHT22;15461;41.652;9.378;2022-08-19T12:01:25;27.80;99.90
28177;DHT22;15461;41.652;9.378;2022-08-19T12:03:53;27.60;99.90
28177;DHT22;15461;41.652;9.378;2022-08-19T12:06:22;27.30;99.90
28177;DHT22;15461;41.652;9.378;2022-08-19T12:08:58;27.20;99.90
28177;DHT22;15461;41.652;9.378;2022-08-19T12:11:25;27.00;99.90
28177;DHT22;15461;41.652;9.378;2022-08-19T12:13:51;27.10;99.90
28177;DHT22;15461;41.652;9.378;2022-08-19T12:16:23;27.40;99.90
28177;DHT22;15461;41.652;9.378;2022-08-19T12:18:50;27.90;99.90
28177;DHT22;15461;41.652;9.378;2022-08-19T12:21:20;28.10;99.90
28177;DHT22;15461;41.652;9.378;2022-08-19T12:23:51;28.10;99.90
28177;DHT22;15461;41.652;9.378;2022-08-19T12:26:17;27.80;99.90
28177;DHT22;15461;41.652;9.378;2022-08-19T12:28:43;27.60;99.90
28177;DHT22;15461;41.652;9.378;2022-08-19T12:31:10;27.60;99.90
28177;DHT22;15461;41.652;9.378;2022-08-19T12:33:41;27.50;99.90
28177;DHT22;15461;41.652;9.378;2022-08-19T12:36:09;27.50;99.90
28177;DHT22;15461;41.652;9.378;2022-08-19T12:38:36;27.40;99.90
28177;DHT22;15461;41.652;9.378;2022-08-19T12:41:03;27.50;99.90
28177;DHT22;15461;41.652;9.378;2022-08-19T12:43:35;27.40;99.90
28177;DHT22;15461;41.652;9.378;2022-08-19T12:46:02;27.30;99.90
28177;DHT22;15461;41.652;9.378;2022-08-19T12:48:30;27.40;99.90
28177;DHT22;15461;41.652;9.378;2022-08-19T12:50:56;27.30;99.90
28177;DHT22;15461;41.652;9.378;2022-08-19T12:53:23;27.30;99.90
28177;DHT22;15461;41.652;9.378;2022-08-19T12:55:57;27.30;99.90
28177;DHT22;15461;41.652;9.378;2022-08-19T12:58:26;27.40;99.90
28177;DHT22;15461;41.652;9.378;2022-08-19T13:00:52;27.60;99.90
28177;DHT22;15461;41.652;9.378;2022-08-19T13:03:19;27.70;99.90
28177;DHT22;15461;41.652;9.378;2022-08-19T13:05:45;27.90;99.90
28177;DHT22;15461;41.652;9.378;2022-08-19T13:08:11;28.10;99.90
28177;DHT22;15461;41.652;9.378;2022-08-19T13:10:39;28.50;99.90
28177;DHT22;15461;41.652;9.378;2022-08-19T13:13:08;28.70;99.90
28177;DHT22;15461;41.652;9.378;2022-08-19T13:15:38;28.50;99.90
28177;DHT22;15461;41.652;9.378;2022-08-19T13:18:07;27.90;99.90
28177;DHT22;15461;41.652;9.378;2022-08-19T13:20:35;27.30;99.90
28177;DHT22;15461;41.652;9.378;2022-08-19T13:23:02;26.80;99.90
28177;DHT22;15461;41.652;9.378;2022-08-19T13:25:27;26.20;99.90
28177;DHT22;15461;41.652;9.378;2022-08-19T13:27:53;25.80;99.90
28177;DHT22;15461;41.652;9.378;2022-08-19T13:30:21;25.40;99.90
28177;DHT22;15461;41.652;9.378;2022-08-19T13:33:07;25.10;99.90
28177;DHT22;15461;41.652;9.378;2022-08-19T13:35:42;24.60;99.90
28177;DHT22;15461;41.652;9.378;2022-08-19T13:38:09;24.30;99.90
28177;DHT22;15461;41.652;9.378;2022-08-19T13:40:36;24.00;99.90
28177;DHT22;15461;41.652;9.378;2022-08-19T13:43:03;23.90;99.90
28177;DHT22;15461;41.652;9.378;2022-08-19T13:45:32;23.90;99.90
28177;DHT22;15461;41.652;9.378;2022-08-19T13:48:05;24.00;99.90
28177;DHT22;15461;41.652;9.378;2022-08-19T13:50:43;24.10;99.90
28177;DHT22;15461;41.652;9.378;2022-08-19T13:53:11;24.20;99.90
28177;DHT22;15461;41.652;9.378;2022-08-19T13:55:39;24.60;99.90
28177;DHT22;15461;41.652;9.378;2022-08-19T13:58:09;25.20;99.90
28177;DHT22;15461;41.652;9.378;2022-08-19T14:00:41;25.80;99.90
28177;DHT22;15461;41.652;9.378;2022-08-19T14:03:08;26.20;99.90
28177;DHT22;15461;41.652;9.378;2022-08-19T14:05:35;26.70;99.90
28177;DHT22;15461;41.652;9.378;2022-08-19T14:08:01;26.70;99.90
28177;DHT22;15461;41.652;9.378;2022-08-19T14:10:28;26.90;99.90
28177;DHT22;15461;41.652;9.378;2022-08-19T14:12:59;27.00;99.90
28177;DHT22;15461;41.652;9.378;2022-08-19T14:15:26;27.20;99.90
28177;DHT22;15461;41.652;9.378;2022-08-19T14:17:55;27.40;99.90
28177;DHT22;15461;41.652;9.378;2022-08-19T14:20:22;27.50;99.90
28177;DHT22;15461;41.652;9.378;2022-08-19T14:22:49;27.70;99.90
28177;DHT22;15461;41.652;9.378;2022-08-19T14:25:20;27.70;99.90
28177;DHT22;15461;41.652;9.378;2022-08-19T14:27:47;27.60;99.90
28177;DHT22;15461;41.652;9.378;2022-08-19T14:30:17;27.70;99.90
28177;DHT22;15461;41.652;9.378;2022-08-19T14:32:45;27.80;99.90
28177;DHT22;15461;41.652;9.378;2022-08-19T14:35:12;28.00;99.90
28177;DHT22;15461;41.652;9.378;2022-08-19T14:37:39;27.90;99.90
28177;DHT22;15461;41.652;9.378;2022-08-19T14:40:06;27.90;99.90
28177;DHT22;15461;41.652;9.378;2022-08-19T14:42:33;27.80;99.90
28177;DHT22;15461;41.652;9.378;2022-08-19T14:45:00;27.70;99.90
28177;DHT22;15461;41.652;9.378;2022-08-19T14:47:26;27.50;99.90
28177;DHT22;15461;41.652;9.378;2022-08-19T14:49:53;27.30;99.90
28177;DHT22;15461;41.652;9.378;2022-08-19T14:52:19;27.50;99.90
28177;DHT22;15461;41.652;9.378;2022-08-19T14:54:45;27.70;99.90
28177;DHT22;15461;41.652;9.378;2022-08-19T14:57:14;28.00;99.90
28177;DHT22;15461;41.652;9.378;2022-08-19T14:59:42;28.10;99.90
28177;DHT22;15461;41.652;9.378;2022-08-19T15:02:10;28.30;99.90
28177;DHT22;15461;41.652;9.378;2022-08-19T15:04:37;28.30;99.90
28177;DHT22;15461;41.652;9.378;2022-08-19T15:07:05;28.50;99.90
28177;DHT22;15461;41.652;9.378;2022-08-19T15:09:32;28.60;99.90
28177;DHT22;15461;41.652;9.378;2022-08-19T15:11:58;28.60;99.90
28177;DHT22;15461;41.652;9.378;2022-08-19T15:14:26;28.70;99.90
28177;DHT22;15461;41.652;9.378;2022-08-19T15:16:53;28.60;99.90
28177;DHT22;15461;41.652;9.378;2022-08-19T15:19:19;28.60;99.90
28177;DHT22;15461;41.652;9.378;2022-08-19T15:21:45;28.40;99.90
28177;DHT22;15461;41.652;9.378;2022-08-19T15:24:11;28.50;99.90
28177;DHT22;15461;41.652;9.378;2022-08-19T15:26:38;28.40;99.90
28177;DHT22;15461;41.652;9.378;2022-08-19T15:29:07;28.40;99.90
28177;DHT22;15461;41.652;9.378;2022-08-19T15:31:33;28.30;99.90
28177;DHT22;15461;41.652;9.378;2022-08-19T15:34:02;28.30;99.90
28177;DHT22;15461;41.652;9.378;2022-08-19T15:36:29;28.00;99.90
28177;DHT22;15461;41.652;9.378;2022-08-19T15:38:56;27.70;99.90
28177;DHT22;15461;41.652;9.378;2022-08-19T15:41:26;27.50;99.90
28177;DHT22;15461;41.652;9.378;2022-08-19T15:44:02;27.50;99.90
28177;DHT22;15461;41.652;9.378;2022-08-19T15:46:31;27.70;99.90
28177;DHT22;15461;41.652;9.378;2022-08-19T15:48:58;27.60;99.90